sensor_id;sensor_type;location;lat;lon;timestamp;pressure;altitude;pressure_sealevel;temperature;humidity
66703;BME280;60933;46.398;-63.798;2023-03-20T00:01:42;100063.97;;;-2.23;55.26
66703;BME280;60933;46.398;-63.798;2023-03-20T00:04:09;100069.84;;;-2.23;55.48
66703;BME280;60933;46.398;-63.798;2023-03-20T00:06:37;100066.41;;;-2.28;55.74
66703;BME280;60933;46.398;-63.798;2023-03-20T00:09:02;100073.91;;;-2.32;55.87
66703;BME280;60933;46.398;-63.798;2023-03-20T00:11:31;100073.84;;;-2.35;55.49
66703;BME280;60933;46.398;-63.798;2023-03-20T00:14:00;100077.09;;;-2.43;55.57
66703;BME280;60933;46.398;-63.798;2023-03-20T00:16:38;100072.84;;;-2.45;54.01
66703;BME280;60933;46.398;-63.798;2023-03-20T00:19:09;100081.34;;;-2.42;53.39
66703;BME280;60933;46.398;-63.798;2023-03-20T00:21:38;100080.44;;;-2.45;52.03
66703;BME280;60933;46.398;-63.798;2023-03-20T00:24:04;100108.22;;;-2.45;51.10
66703;BME280;60933;46.398;-63.798;2023-03-20T00:26:33;100095.56;;;-2.47;52.27
66703;BME280;60933;46.398;-63.798;2023-03-20T00:29:00;100089.56;;;-2.52;51.63
66703;BME280;60933;46.398;-63.798;2023-03-20T00:31:29;100112.31;;;-2.52;52.02
66703;BME280;60933;46.398;-63.798;2023-03-20T00:33:58;100099.59;;;-2.57;51.81
66703;BME280;60933;46.398;-63.798;2023-03-20T00:36:25;100091.16;;;-2.57;52.38
66703;BME280;60933;46.398;-63.798;2023-03-20T00:38:51;100105.41;;;-2.61;52.61
66703;BME280;60933;46.398;-63.798;2023-03-20T00:41:27;100118.88;;;-2.62;53.08
66703;BME280;60933;46.398;-63.798;2023-03-20T00:44:01;100100.25;;;-2.67;52.77
66703;BME280;60933;46.398;-63.798;2023-03-20T00:46:37;100130.56;;;-2.67;52.38
66703;BME280;60933;46.398;-63.798;2023-03-20T00:49:04;100114.44;;;-2.74;52.52
66703;BME280;60933;46.398;-63.798;2023-03-20T00:51:31;100116.16;;;-2.71;52.32
66703;BME280;60933;46.398;-63.798;2023-03-20T00:53:56;100137.19;;;-2.74;52.87
66703;BME280;60933;46.398;-63.798;2023-03-20T00:58:55;100129.41;;;-2.83;53.77
66703;BME280;60933;46.398;-63.798;2023-03-20T01:01:21;100132.72;;;-2.86;53.97
66703;BME280;60933;46.398;-63.798;2023-03-20T01:03:47;100132.72;;;-2.86;53.85
66703;BME280;60933;46.398;-63.798;2023-03-20T01:06:13;100152.03;;;-2.89;55.12
66703;BME280;60933;46.398;-63.798;2023-03-20T01:08:39;100127.53;;;-2.93;56.14
66703;BME280;60933;46.398;-63.798;2023-03-20T01:11:05;100143.59;;;-2.91;57.68
66703;BME280;60933;46.398;-63.798;2023-03-20T01:13:39;100153.53;;;-2.97;57.62
66703;BME280;60933;46.398;-63.798;2023-03-20T01:16:20;100166.97;;;-2.98;57.17
66703;BME280;60933;46.398;-63.798;2023-03-20T01:18:47;100177.06;;;-3.00;56.71
66703;BME280;60933;46.398;-63.798;2023-03-20T01:21:16;100154.22;;;-3.05;56.45
66703;BME280;60933;46.398;-63.798;2023-03-20T01:23:43;100177.84;;;-3.03;55.91
66703;BME280;60933;46.398;-63.798;2023-03-20T01:28:59;100179.44;;;-3.08;55.37
66703;BME280;60933;46.398;-63.798;2023-03-20T01:31:25;100190.34;;;-3.09;56.07
66703;BME280;60933;46.398;-63.798;2023-03-20T01:33:51;100197.88;;;-3.10;55.36
66703;BME280;60933;46.398;-63.798;2023-03-20T01:36:21;100197.00;;;-3.12;55.05
66703;BME280;60933;46.398;-63.798;2023-03-20T01:38:54;100212.03;;;-3.17;55.05
66703;BME280;60933;46.398;-63.798;2023-03-20T01:41:23;100196.94;;;-3.15;54.46
66703;BME280;60933;46.398;-63.798;2023-03-20T01:43:49;100207.00;;;-3.17;55.03
66703;BME280;60933;46.398;-63.798;2023-03-20T01:51:16;100206.91;;;-3.20;55.12
66703;BME280;60933;46.398;-63.798;2023-03-20T01:53:43;100208.56;;;-3.22;54.91
66703;BME280;60933;46.398;-63.798;2023-03-20T01:56:13;100192.44;;;-3.27;55.45
66703;BME280;60933;46.398;-63.798;2023-03-20T01:58:43;100200.81;;;-3.30;56.30
66703;BME280;60933;46.398;-63.798;2023-03-20T02:01:12;100213.47;;;-3.28;57.31
66703;BME280;60933;46.398;-63.798;2023-03-20T02:03:43;100223.44;;;-3.33;58.43
66703;BME280;60933;46.398;-63.798;2023-03-20T02:06:10;100224.22;;;-3.36;57.72
66703;BME280;60933;46.398;-63.798;2023-03-20T02:08:40;100238.56;;;-3.35;56.85
66703;BME280;60933;46.398;-63.798;2023-03-20T02:11:07;100224.22;;;-3.37;56.80
66703;BME280;60933;46.398;-63.798;2023-03-20T02:13:34;100217.44;;;-3.38;57.53
66703;BME280;60933;46.398;-63.798;2023-03-20T02:16:10;100215.72;;;-3.41;57.84
66703;BME280;60933;46.398;-63.798;2023-03-20T02:18:37;100224.09;;;-3.42;58.59
66703;BME280;60933;46.398;-63.798;2023-03-20T02:40:20;100249.75;;;-3.60;57.36
66703;BME280;60933;46.398;-63.798;2023-03-20T02:42:58;100230.25;;;-3.66;57.59
66703;BME280;60933;46.398;-63.798;2023-03-20T02:45:30;100244.72;;;-3.58;57.10
66703;BME280;60933;46.398;-63.798;2023-03-20T02:50:52;100249.75;;;-3.58;57.44
66703;BME280;60933;46.398;-63.798;2023-03-20T02:56:16;100253.94;;;-3.60;57.20
66703;BME280;60933;46.398;-63.798;2023-03-20T02:59:11;100253.94;;;-3.60;57.00
66703;BME280;60933;46.398;-63.798;2023-03-20T03:01:46;100271.50;;;-3.63;57.78
66703;BME280;60933;46.398;-63.798;2023-03-20T03:04:23;100269.81;;;-3.64;57.62
66703;BME280;60933;46.398;-63.798;2023-03-20T03:06:51;100262.19;;;-3.66;58.39
66703;BME280;60933;46.398;-63.798;2023-03-20T03:09:29;100261.88;;;-3.78;58.48
66703;BME280;60933;46.398;-63.798;2023-03-20T03:12:01;100256.06;;;-3.76;58.36
66703;BME280;60933;46.398;-63.798;2023-03-20T03:14:59;100272.09;;;-3.74;57.93
66703;BME280;60933;46.398;-63.798;2023-03-20T03:17:29;100267.00;;;-3.75;57.97
66703;BME280;60933;46.398;-63.798;2023-03-20T03:20:01;100277.06;;;-3.77;57.69
66703;BME280;60933;46.398;-63.798;2023-03-20T03:22:31;100274.44;;;-3.80;57.83
66703;BME280;60933;46.398;-63.798;2023-03-20T03:24:59;100288.63;;;-3.85;57.21
66703;BME280;60933;46.398;-63.798;2023-03-20T03:27:36;100276.81;;;-3.86;57.86
66703;BME280;60933;46.398;-63.798;2023-03-20T03:30:09;100281.06;;;-3.85;57.73
66703;BME280;60933;46.398;-63.798;2023-03-20T03:32:45;100271.69;;;-3.89;57.76
66703;BME280;60933;46.398;-63.798;2023-03-20T03:35:20;100291.81;;;-3.91;57.32
66703;BME280;60933;46.398;-63.798;2023-03-20T03:37:50;100274.13;;;-3.92;57.24
66703;BME280;60933;46.398;-63.798;2023-03-20T03:40:34;100277.47;;;-3.93;56.92
66703;BME280;60933;46.398;-63.798;2023-03-20T03:43:27;100307.63;;;-3.97;56.99
66703;BME280;60933;46.398;-63.798;2023-03-20T03:46:12;100292.44;;;-4.00;57.04
66703;BME280;60933;46.398;-63.798;2023-03-20T03:48:44;100300.06;;;-3.97;56.40
66703;BME280;60933;46.398;-63.798;2023-03-20T03:51:16;100316.00;;;-3.98;56.70
66703;BME280;60933;46.398;-63.798;2023-03-20T03:53:51;100293.13;;;-4.05;56.88
66703;BME280;60933;46.398;-63.798;2023-03-20T03:56:21;100297.38;;;-4.03;56.26
66703;BME280;60933;46.398;-63.798;2023-03-20T03:58:52;100293.28;;;-3.99;55.96
66703;BME280;60933;46.398;-63.798;2023-03-20T04:01:22;100308.41;;;-3.99;56.35
66703;BME280;60933;46.398;-63.798;2023-03-20T04:03:51;100317.66;;;-4.00;55.70
66703;BME280;60933;46.398;-63.798;2023-03-20T04:06:19;100303.28;;;-4.02;55.97
66703;BME280;60933;46.398;-63.798;2023-03-20T04:08:45;100319.16;;;-4.05;56.18
66703;BME280;60933;46.398;-63.798;2023-03-20T04:11:23;100320.81;;;-4.07;56.34
66703;BME280;60933;46.398;-63.798;2023-03-20T04:13:50;100309.72;;;-4.12;56.94
66703;BME280;60933;46.398;-63.798;2023-03-20T04:16:18;100318.09;;;-4.13;57.45
66703;BME280;60933;46.398;-63.798;2023-03-20T04:18:44;100338.22;;;-4.15;58.16
66703;BME280;60933;46.398;-63.798;2023-03-20T04:21:12;100337.47;;;-4.12;57.67
66703;BME280;60933;46.398;-63.798;2023-03-20T04:23:38;100355.81;;;-4.18;57.39
66703;BME280;60933;46.398;-63.798;2023-03-20T04:26:04;100347.34;;;-4.20;57.20
66703;BME280;60933;46.398;-63.798;2023-03-20T04:28:31;100336.34;;;-4.22;57.72
66703;BME280;60933;46.398;-63.798;2023-03-20T04:30:57;100357.44;;;-4.20;56.38
66703;BME280;60933;46.398;-63.798;2023-03-20T04:33:24;100343.09;;;-4.21;57.48
66703;BME280;60933;46.398;-63.798;2023-03-20T04:35:51;100353.91;;;-4.25;57.25
66703;BME280;60933;46.398;-63.798;2023-03-20T04:38:18;100375.06;;;-4.20;56.42
66703;BME280;60933;46.398;-63.798;2023-03-20T04:40:45;100377.53;;;-4.21;55.98
66703;BME280;60933;46.398;-63.798;2023-03-20T04:43:12;100357.28;;;-4.24;56.91
66703;BME280;60933;46.398;-63.798;2023-03-20T04:45:38;100360.63;;;-4.25;56.91
66703;BME280;60933;46.398;-63.798;2023-03-20T04:48:05;100361.38;;;-4.28;57.49
66703;BME280;60933;46.398;-63.798;2023-03-20T04:50:31;100373.84;;;-4.33;57.24
66703;BME280;60933;46.398;-63.798;2023-03-20T04:52:57;100374.50;;;-4.38;57.53
66703;BME280;60933;46.398;-63.798;2023-03-20T04:55:25;100389.59;;;-4.40;57.61
66703;BME280;60933;46.398;-63.798;2023-03-20T04:57:51;100385.25;;;-4.44;57.58
66703;BME280;60933;46.398;-63.798;2023-03-20T05:00:17;100366.81;;;-4.43;57.96
66703;BME280;60933;46.398;-63.798;2023-03-20T05:02:44;100385.06;;;-4.50;57.63
66703;BME280;60933;46.398;-63.798;2023-03-20T05:05:10;100426.41;;;-4.45;57.59
66703;BME280;60933;46.398;-63.798;2023-03-20T05:07:36;100386.88;;;-4.46;57.37
66703;BME280;60933;46.398;-63.798;2023-03-20T05:10:03;100407.81;;;-4.49;56.72
66703;BME280;60933;46.398;-63.798;2023-03-20T05:12:29;100401.81;;;-4.52;57.47
66703;BME280;60933;46.398;-63.798;2023-03-20T05:14:56;100409.28;;;-4.55;57.29
66703;BME280;60933;46.398;-63.798;2023-03-20T05:17:22;100435.16;;;-4.59;57.43
66703;BME280;60933;46.398;-63.798;2023-03-20T05:19:49;100410.06;;;-4.56;57.89
66703;BME280;60933;46.398;-63.798;2023-03-20T05:22:16;100424.25;;;-4.60;58.49
66703;BME280;60933;46.398;-63.798;2023-03-20T05:24:42;100428.44;;;-4.61;58.08
66703;BME280;60933;46.398;-63.798;2023-03-20T05:27:09;100421.56;;;-4.65;58.13
66703;BME280;60933;46.398;-63.798;2023-03-20T05:29:35;100430.81;;;-4.65;58.51
66703;BME280;60933;46.398;-63.798;2023-03-20T05:32:01;100432.28;;;-4.70;58.37
66703;BME280;60933;46.398;-63.798;2023-03-20T05:34:27;100447.53;;;-4.67;58.54
66703;BME280;60933;46.398;-63.798;2023-03-20T05:36:53;100441.53;;;-4.71;58.79
66703;BME280;60933;46.398;-63.798;2023-03-20T05:39:19;100433.06;;;-4.73;59.27
66703;BME280;60933;46.398;-63.798;2023-03-20T05:41:46;100429.44;;;-4.81;58.72
66703;BME280;60933;46.398;-63.798;2023-03-20T05:44:13;100465.56;;;-4.81;58.41
66703;BME280;60933;46.398;-63.798;2023-03-20T05:46:39;100455.28;;;-4.87;58.11
66703;BME280;60933;46.398;-63.798;2023-03-20T05:49:05;100434.19;;;-4.90;57.66
66703;BME280;60933;46.398;-63.798;2023-03-20T05:51:31;100452.50;;;-4.95;58.09
66703;BME280;60933;46.398;-63.798;2023-03-20T05:53:57;100466.59;;;-5.00;58.09
66703;BME280;60933;46.398;-63.798;2023-03-20T05:56:23;100467.28;;;-5.04;57.70
66703;BME280;60933;46.398;-63.798;2023-03-20T05:58:49;100473.38;;;-4.99;57.65
66703;BME280;60933;46.398;-63.798;2023-03-20T06:01:16;100493.22;;;-5.06;58.21
66703;BME280;60933;46.398;-63.798;2023-03-20T06:03:46;100488.19;;;-5.06;57.72
66703;BME280;60933;46.398;-63.798;2023-03-20T06:06:14;100483.00;;;-5.11;57.86
66703;BME280;60933;46.398;-63.798;2023-03-20T06:08:41;100498.81;;;-5.15;57.44
66703;BME280;60933;46.398;-63.798;2023-03-20T06:11:07;100508.75;;;-5.18;57.92
66703;BME280;60933;46.398;-63.798;2023-03-20T06:13:33;100482.66;;;-5.20;58.31
66703;BME280;60933;46.398;-63.798;2023-03-20T06:15:59;100506.88;;;-5.24;58.63
66703;BME280;60933;46.398;-63.798;2023-03-20T06:18:25;100504.22;;;-5.29;57.94
66703;BME280;60933;46.398;-63.798;2023-03-20T06:20:51;100519.31;;;-5.29;58.58
66703;BME280;60933;46.398;-63.798;2023-03-20T06:23:18;100534.28;;;-5.32;58.80
66703;BME280;60933;46.398;-63.798;2023-03-20T06:25:44;100516.53;;;-5.35;58.84
66703;BME280;60933;46.398;-63.798;2023-03-20T06:28:10;100511.41;;;-5.38;58.94
66703;BME280;60933;46.398;-63.798;2023-03-20T06:30:36;100514.03;;;-5.35;58.98
66703;BME280;60933;46.398;-63.798;2023-03-20T06:33:02;100520.72;;;-5.35;58.74
66703;BME280;60933;46.398;-63.798;2023-03-20T06:35:28;100530.75;;;-5.37;59.07
66703;BME280;60933;46.398;-63.798;2023-03-20T06:37:56;100544.78;;;-5.42;58.72
66703;BME280;60933;46.398;-63.798;2023-03-20T06:40:23;100530.56;;;-5.42;59.01
66703;BME280;60933;46.398;-63.798;2023-03-20T06:42:49;100559.06;;;-5.43;58.57
66703;BME280;60933;46.398;-63.798;2023-03-20T06:45:15;100533.41;;;-5.55;59.31
66703;BME280;60933;46.398;-63.798;2023-03-20T06:47:41;100532.94;;;-5.46;59.45
66703;BME280;60933;46.398;-63.798;2023-03-20T06:50:08;100556.13;;;-5.53;60.26
66703;BME280;60933;46.398;-63.798;2023-03-20T06:52:34;100586.31;;;-5.53;59.72
66703;BME280;60933;46.398;-63.798;2023-03-20T06:55:00;100553.63;;;-5.53;60.24
66703;BME280;60933;46.398;-63.798;2023-03-20T06:57:26;100580.41;;;-5.54;60.35
66703;BME280;60933;46.398;-63.798;2023-03-20T06:59:53;100544.34;;;-5.54;60.30
66703;BME280;60933;46.398;-63.798;2023-03-20T07:02:19;100555.25;;;-5.54;60.55
66703;BME280;60933;46.398;-63.798;2023-03-20T07:04:45;100562.72;;;-5.57;60.90
66703;BME280;60933;46.398;-63.798;2023-03-20T07:07:11;100603.63;;;-5.61;61.01
66703;BME280;60933;46.398;-63.798;2023-03-20T07:09:38;100564.34;;;-5.58;61.46
66703;BME280;60933;46.398;-63.798;2023-03-20T07:12:04;100570.13;;;-5.60;61.55
66703;BME280;60933;46.398;-63.798;2023-03-20T07:14:36;100568.41;;;-5.61;61.88
66703;BME280;60933;46.398;-63.798;2023-03-20T07:17:09;100570.88;;;-5.63;61.73
66703;BME280;60933;46.398;-63.798;2023-03-20T07:19:35;100587.56;;;-5.65;61.20
66703;BME280;60933;46.398;-63.798;2023-03-20T07:22:04;100589.13;;;-5.67;60.93
66703;BME280;60933;46.398;-63.798;2023-03-20T07:24:31;100617.63;;;-5.68;60.94
66703;BME280;60933;46.398;-63.798;2023-03-20T07:26:57;100583.31;;;-5.66;60.99
66703;BME280;60933;46.398;-63.798;2023-03-20T07:29:23;100597.50;;;-5.68;61.29
66703;BME280;60933;46.398;-63.798;2023-03-20T07:31:49;100596.59;;;-5.70;61.53
66703;BME280;60933;46.398;-63.798;2023-03-20T07:34:15;100629.13;;;-5.73;61.35
66703;BME280;60933;46.398;-63.798;2023-03-20T07:36:41;100615.69;;;-5.75;61.54
66703;BME280;60933;46.398;-63.798;2023-03-20T07:39:08;100609.72;;;-5.77;61.75
66703;BME280;60933;46.398;-63.798;2023-03-20T07:41:34;100586.22;;;-5.78;61.45
66703;BME280;60933;46.398;-63.798;2023-03-20T07:44:01;100644.69;;;-5.83;61.75
66703;BME280;60933;46.398;-63.798;2023-03-20T07:46:27;100614.69;;;-5.79;62.40
66703;BME280;60933;46.398;-63.798;2023-03-20T07:48:53;100635.59;;;-5.80;62.82
66703;BME280;60933;46.398;-63.798;2023-03-20T07:51:23;100658.88;;;-5.84;62.63
66703;BME280;60933;46.398;-63.798;2023-03-20T07:53:49;100653.06;;;-5.83;62.48
66703;BME280;60933;46.398;-63.798;2023-03-20T07:56:16;100645.47;;;-5.84;62.49
66703;BME280;60933;46.398;-63.798;2023-03-20T07:58:42;100715.88;;;-5.84;62.46
66703;BME280;60933;46.398;-63.798;2023-03-20T08:01:08;100667.16;;;-5.86;62.34
66703;BME280;60933;46.398;-63.798;2023-03-20T08:03:34;100664.59;;;-5.88;62.57
66703;BME280;60933;46.398;-63.798;2023-03-20T08:06:00;100676.44;;;-5.85;62.42
66703;BME280;60933;46.398;-63.798;2023-03-20T08:08:26;100678.75;;;-5.90;62.55
66703;BME280;60933;46.398;-63.798;2023-03-20T08:10:52;100673.69;;;-5.92;62.39
66703;BME280;60933;46.398;-63.798;2023-03-20T08:13:18;100707.94;;;-5.94;62.39
66703;BME280;60933;46.398;-63.798;2023-03-20T08:15:46;100676.69;;;-6.00;62.73
66703;BME280;60933;46.398;-63.798;2023-03-20T08:18:12;100696.75;;;-6.02;63.11
66703;BME280;60933;46.398;-63.798;2023-03-20T08:20:38;100695.00;;;-6.03;63.02
66703;BME280;60933;46.398;-63.798;2023-03-20T08:23:04;100698.31;;;-6.04;63.36
66703;BME280;60933;46.398;-63.798;2023-03-20T08:25:30;100714.19;;;-6.05;63.10
66703;BME280;60933;46.398;-63.798;2023-03-20T08:27:59;100723.44;;;-6.04;62.83
66703;BME280;60933;46.398;-63.798;2023-03-20T08:30:26;100704.88;;;-6.08;63.36
66703;BME280;60933;46.398;-63.798;2023-03-20T08:32:52;100703.03;;;-6.12;63.61
66703;BME280;60933;46.398;-63.798;2023-03-20T08:35:18;100729.00;;;-6.11;63.31
66703;BME280;60933;46.398;-63.798;2023-03-20T08:37:44;100713.88;;;-6.13;63.88
66703;BME280;60933;46.398;-63.798;2023-03-20T08:40:11;100732.19;;;-6.15;63.61
66703;BME280;60933;46.398;-63.798;2023-03-20T08:42:37;100734.53;;;-6.20;64.15
66703;BME280;60933;46.398;-63.798;2023-03-20T08:45:03;100744.56;;;-6.20;63.91
66703;BME280;60933;46.398;-63.798;2023-03-20T08:47:30;100764.53;;;-6.23;63.86
66703;BME280;60933;46.398;-63.798;2023-03-20T08:49:56;100776.25;;;-6.24;63.74
66703;BME280;60933;46.398;-63.798;2023-03-20T08:52:22;100747.81;;;-6.23;63.78
66703;BME280;60933;46.398;-63.798;2023-03-20T08:54:48;100766.19;;;-6.24;64.32
66703;BME280;60933;46.398;-63.798;2023-03-20T08:57:14;100771.78;;;-6.29;64.34
66703;BME280;60933;46.398;-63.798;2023-03-20T08:59:40;100760.16;;;-6.27;64.32
66703;BME280;60933;46.398;-63.798;2023-03-20T09:02:06;100769.28;;;-6.29;64.60
66703;BME280;60933;46.398;-63.798;2023-03-20T09:04:35;100768.44;;;-6.30;64.33
66703;BME280;60933;46.398;-63.798;2023-03-20T09:07:01;100773.25;;;-6.34;64.88
66703;BME280;60933;46.398;-63.798;2023-03-20T09:09:27;100815.09;;;-6.35;64.68
66703;BME280;60933;46.398;-63.798;2023-03-20T09:11:55;100799.91;;;-6.38;64.64
66703;BME280;60933;46.398;-63.798;2023-03-20T09:14:23;100791.47;;;-6.39;65.04
66703;BME280;60933;46.398;-63.798;2023-03-20T09:16:49;100774.78;;;-6.38;64.69
66703;BME280;60933;46.398;-63.798;2023-03-20T09:19:16;100834.97;;;-6.40;64.46
66703;BME280;60933;46.398;-63.798;2023-03-20T09:21:42;100810.72;;;-6.39;64.56
66703;BME280;60933;46.398;-63.798;2023-03-20T09:24:08;100844.03;;;-6.43;64.75
66703;BME280;60933;46.398;-63.798;2023-03-20T09:26:37;100815.53;;;-6.44;64.65
66703;BME280;60933;46.398;-63.798;2023-03-20T09:29:04;100832.69;;;-6.53;65.03
66703;BME280;60933;46.398;-63.798;2023-03-20T09:31:30;100824.66;;;-6.46;65.01
66703;BME280;60933;46.398;-63.798;2023-03-20T09:33:56;100820.34;;;-6.48;65.74
66703;BME280;60933;46.398;-63.798;2023-03-20T09:36:22;100818.72;;;-6.48;64.85
66703;BME280;60933;46.398;-63.798;2023-03-20T09:38:48;100831.97;;;-6.50;64.96
66703;BME280;60933;46.398;-63.798;2023-03-20T09:41:20;100802.66;;;-6.52;64.79
66703;BME280;60933;46.398;-63.798;2023-03-20T09:49:56;100858.47;;;-6.57;64.83
66703;BME280;60933;46.398;-63.798;2023-03-20T09:52:30;100842.47;;;-6.59;65.48
66703;BME280;60933;46.398;-63.798;2023-03-20T09:55:01;100862.63;;;-6.58;65.13
66703;BME280;60933;46.398;-63.798;2023-03-20T09:57:38;100841.53;;;-6.61;65.73
66703;BME280;60933;46.398;-63.798;2023-03-20T10:00:11;100872.66;;;-6.58;64.95
66703;BME280;60933;46.398;-63.798;2023-03-20T10:02:54;100864.13;;;-6.61;64.85
66703;BME280;60933;46.398;-63.798;2023-03-20T10:05:26;100890.19;;;-6.59;64.44
66703;BME280;60933;46.398;-63.798;2023-03-20T10:07:58;100875.84;;;-6.62;64.50
66703;BME280;60933;46.398;-63.798;2023-03-20T10:19:46;100886.88;;;-6.58;64.24
66703;BME280;60933;46.398;-63.798;2023-03-20T10:24:55;100897.44;;;-6.65;63.33
66703;BME280;60933;46.398;-63.798;2023-03-20T10:27:25;100904.09;;;-6.66;63.63
66703;BME280;60933;46.398;-63.798;2023-03-20T10:32:47;100907.19;;;-6.72;63.64
66703;BME280;60933;46.398;-63.798;2023-03-20T10:38:52;100938.22;;;-6.70;63.44
66703;BME280;60933;46.398;-63.798;2023-03-20T10:41:26;100969.38;;;-6.66;63.68
66703;BME280;60933;46.398;-63.798;2023-03-20T10:43:55;100954.22;;;-6.68;63.59
66703;BME280;60933;46.398;-63.798;2023-03-20T10:46:23;100968.47;;;-6.68;63.34
66703;BME280;60933;46.398;-63.798;2023-03-20T10:49:05;100964.50;;;-6.63;63.17
66703;BME280;60933;46.398;-63.798;2023-03-20T10:51:42;100987.19;;;-6.61;63.20
66703;BME280;60933;46.398;-63.798;2023-03-20T10:54:33;100999.59;;;-6.64;63.19
66703;BME280;60933;46.398;-63.798;2023-03-20T10:57:02;100962.00;;;-6.63;63.23
66703;BME280;60933;46.398;-63.798;2023-03-20T11:02:00;100981.38;;;-6.60;63.49
66703;BME280;60933;46.398;-63.798;2023-03-20T11:04:26;101010.09;;;-6.55;63.67
66703;BME280;60933;46.398;-63.798;2023-03-20T11:09:39;101018.50;;;-6.55;62.81
66703;BME280;60933;46.398;-63.798;2023-03-20T11:12:12;101034.41;;;-6.54;62.81
66703;BME280;60933;46.398;-63.798;2023-03-20T11:14:41;101029.88;;;-6.61;62.97
66703;BME280;60933;46.398;-63.798;2023-03-20T11:17:12;101036.69;;;-6.59;63.39
66703;BME280;60933;46.398;-63.798;2023-03-20T11:19:40;101046.91;;;-6.56;62.89
66703;BME280;60933;46.398;-63.798;2023-03-20T11:24:46;101019.72;;;-6.46;62.75
66703;BME280;60933;46.398;-63.798;2023-03-20T11:27:25;101044.91;;;-6.45;62.93
66703;BME280;60933;46.398;-63.798;2023-03-20T11:29:52;101051.91;;;-6.39;63.03
66703;BME280;60933;46.398;-63.798;2023-03-20T11:32:29;101050.47;;;-6.34;62.87
66703;BME280;60933;46.398;-63.798;2023-03-20T11:34:56;101054.09;;;-6.29;62.65
66703;BME280;60933;46.398;-63.798;2023-03-20T11:37:35;101055.78;;;-6.28;63.02
66703;BME280;60933;46.398;-63.798;2023-03-20T11:42:36;101088.84;;;-6.20;61.89
66703;BME280;60933;46.398;-63.798;2023-03-20T11:45:20;101075.38;;;-6.21;62.24
66703;BME280;60933;46.398;-63.798;2023-03-20T11:47:54;101069.56;;;-6.20;62.35
66703;BME280;60933;46.398;-63.798;2023-03-20T11:50:43;101080.97;;;-6.10;63.16
66703;BME280;60933;46.398;-63.798;2023-03-20T11:53:27;101088.56;;;-6.08;62.13
66703;BME280;60933;46.398;-63.798;2023-03-20T11:56:21;101161.59;;;-6.05;61.60
66703;BME280;60933;46.398;-63.798;2023-03-20T12:01:26;101098.63;;;-6.08;60.16
66703;BME280;60933;46.398;-63.798;2023-03-20T12:04:09;101098.75;;;-6.05;59.42
66703;BME280;60933;46.398;-63.798;2023-03-20T12:14:37;101125.78;;;-6.01;59.67
66703;BME280;60933;46.398;-63.798;2023-03-20T12:20:01;101112.34;;;-5.83;60.26
66703;BME280;60933;46.398;-63.798;2023-03-20T12:22:42;101127.66;;;-5.79;60.00
66703;BME280;60933;46.398;-63.798;2023-03-20T12:27:54;101130.38;;;-5.74;58.85
66703;BME280;60933;46.398;-63.798;2023-03-20T12:35:48;101110.97;;;-5.59;59.12
66703;BME280;60933;46.398;-63.798;2023-03-20T12:38:36;101134.22;;;-5.46;58.98
66703;BME280;60933;46.398;-63.798;2023-03-20T12:43:52;101144.06;;;-5.51;57.61
66703;BME280;60933;46.398;-63.798;2023-03-20T12:54:35;101133.63;;;-5.22;57.51
66703;BME280;60933;46.398;-63.798;2023-03-20T12:59:41;101135.38;;;-5.02;56.59
66703;BME280;60933;46.398;-63.798;2023-03-20T13:05:27;101145.59;;;-4.99;56.91
66703;BME280;60933;46.398;-63.798;2023-03-20T13:08:05;101173.06;;;-4.85;57.01
66703;BME280;60933;46.398;-63.798;2023-03-20T13:10:54;101153.97;;;-4.80;55.81
66703;BME280;60933;46.398;-63.798;2023-03-20T13:13:32;101147.59;;;-4.72;56.20
66703;BME280;60933;46.398;-63.798;2023-03-20T13:16:26;101159.47;;;-4.69;56.30
66703;BME280;60933;46.398;-63.798;2023-03-20T13:22:00;101145.75;;;-4.56;55.64
66703;BME280;60933;46.398;-63.798;2023-03-20T13:24:39;101186.75;;;-4.41;55.95
66703;BME280;60933;46.398;-63.798;2023-03-20T13:27:35;101157.16;;;-4.25;55.13
66703;BME280;60933;46.398;-63.798;2023-03-20T13:30:22;101154.22;;;-4.15;54.89
66703;BME280;60933;46.398;-63.798;2023-03-20T13:36:00;101166.16;;;-4.11;54.75
66703;BME280;60933;46.398;-63.798;2023-03-20T13:38:39;101189.44;;;-4.17;53.78
66703;BME280;60933;46.398;-63.798;2023-03-20T13:41:09;101157.19;;;-4.04;54.19
66703;BME280;60933;46.398;-63.798;2023-03-20T13:43:55;101144.44;;;-4.07;52.68
66703;BME280;60933;46.398;-63.798;2023-03-20T13:49:26;101162.53;;;-3.97;53.74
66703;BME280;60933;46.398;-63.798;2023-03-20T13:52:14;101173.03;;;-3.87;54.36
66703;BME280;60933;46.398;-63.798;2023-03-20T13:55:19;101199.19;;;-3.85;52.55
66703;BME280;60933;46.398;-63.798;2023-03-20T13:58:05;101175.19;;;-3.75;52.89
66703;BME280;60933;46.398;-63.798;2023-03-20T14:00:48;101206.81;;;-3.62;51.97
66703;BME280;60933;46.398;-63.798;2023-03-20T14:03:26;101186.63;;;-3.41;51.60
66703;BME280;60933;46.398;-63.798;2023-03-20T14:05:54;101192.91;;;-3.31;50.21
66703;BME280;60933;46.398;-63.798;2023-03-20T14:11:25;101183.41;;;-3.16;50.31
66703;BME280;60933;46.398;-63.798;2023-03-20T14:14:23;101183.97;;;-3.00;50.97
66703;BME280;60933;46.398;-63.798;2023-03-20T14:17:08;101192.63;;;-2.94;49.49
66703;BME280;60933;46.398;-63.798;2023-03-20T14:19:37;101194.75;;;-3.05;46.83
66703;BME280;60933;46.398;-63.798;2023-03-20T14:22:04;101168.13;;;-2.96;48.11
66703;BME280;60933;46.398;-63.798;2023-03-20T14:24:35;101199.22;;;-2.97;47.65
66703;BME280;60933;46.398;-63.798;2023-03-20T14:27:03;101187.53;;;-2.95;46.71
66703;BME280;60933;46.398;-63.798;2023-03-20T14:29:37;101265.50;;;-2.82;49.00
66703;BME280;60933;46.398;-63.798;2023-03-20T14:38:03;101188.03;;;-2.34;49.65
66703;BME280;60933;46.398;-63.798;2023-03-20T14:40:41;101209.19;;;-2.32;47.02
66703;BME280;60933;46.398;-63.798;2023-03-20T14:54:55;101211.31;;;-1.95;46.01
66703;BME280;60933;46.398;-63.798;2023-03-20T14:57:33;101211.19;;;-1.73;46.10
66703;BME280;60933;46.398;-63.798;2023-03-20T15:00:00;101207.34;;;-1.62;45.93
66703;BME280;60933;46.398;-63.798;2023-03-20T15:02:29;101204.97;;;-1.57;46.02
66703;BME280;60933;46.398;-63.798;2023-03-20T15:04:59;101225.75;;;-1.40;46.21